PWSweather.com
Personal Weather Stations
Station Observations
SHAHALMS1
Eftra, Falkenberg, HA

EftraFalkenberg, HA

Lat: 56.85, Lon: 12.65

Elevation: 140

Station Type:

http://hem.passagen.se/risarp101

High Low Average
Temperature 60.6°F15.9°C 53.8°F12.1°C 56.4°F13.6°C
Dew Point 57.7°F14.3°C 49.9°F9.9°C 53.6°F12.0°C
Winds 14.0 mph 22.5 kmh 3.2 mph 5.1 kmh 7.0 mph SSE11.3 kmh SSE
Wind Gusts 17.2 mph27.7 kmh 3.9 mph6.3 kmh 9.0 mph14.5 kmh
Humidity 96% 77% 91%
Pressure 29.68 in1005.1 mb 29.50 in999.0 mb -
Precipitation 0.15 in3.8 mm - -
Hour Temp Dew Point Humidity Winds Wind Gusts Pressure Precip Precip Rate Daily Precip Total
12:00 AM 56.5°F13.6°C 55.1°F12.8°C 95% 4.7 mph E7.6 kmh E 5.7 mph9.2 kmh 29.68 in1005.1 mb 0.00 in0.0 mm 0.00 in0.0 mm 0.00 in0.0 mm
12:10 AM 56.5°F13.6°C 55.1°F12.8°C 95% 4.7 mph E7.6 kmh E 5.7 mph9.2 kmh 29.68 in1005.1 mb 0.00 in0.0 mm 0.00 in0.0 mm 0.00 in0.0 mm
12:20 AM 56.3°F13.5°C 54.9°F12.7°C 95% 4.7 mph E7.6 kmh E 5.7 mph9.2 kmh 29.68 in1005.1 mb 0.00 in0.0 mm 0.00 in0.0 mm 0.00 in0.0 mm
12:30 AM 56.3°F13.5°C 54.9°F12.7°C 95% 4.7 mph E7.6 kmh E 5.7 mph9.2 kmh 29.68 in1005.1 mb 0.00 in0.0 mm 0.00 in0.0 mm 0.00 in0.0 mm
12:40 AM 56.1°F13.4°C 54.7°F12.6°C 95% 4.7 mph E7.6 kmh E 5.7 mph9.2 kmh 29.68 in1005.1 mb 0.00 in0.0 mm 0.00 in0.0 mm 0.00 in0.0 mm
12:50 AM 56.1°F13.4°C 54.7°F12.6°C 95% 4.7 mph E7.6 kmh E 5.7 mph9.2 kmh 29.68 in1005.1 mb 0.00 in0.0 mm 0.00 in0.0 mm 0.00 in0.0 mm
01:00 AM 55.9°F13.3°C 54.5°F12.5°C 95% 4.7 mph E7.6 kmh E 5.7 mph9.2 kmh 29.68 in1005.1 mb 0.00 in0.0 mm 0.00 in0.0 mm 0.00 in0.0 mm
01:10 AM 56.1°F13.4°C 54.7°F12.6°C 95% 4.7 mph E7.6 kmh E 5.7 mph9.2 kmh 29.68 in1005.1 mb 0.00 in0.0 mm 0.00 in0.0 mm 0.00 in0.0 mm
01:20 AM 56.1°F13.4°C 54.7°F12.6°C 95% 4.7 mph E7.6 kmh E 5.7 mph9.2 kmh 29.68 in1005.1 mb 0.00 in0.0 mm 0.00 in0.0 mm 0.00 in0.0 mm
01:30 AM 55.9°F13.3°C 54.5°F12.5°C 95% 4.7 mph E7.6 kmh E 5.7 mph9.2 kmh 29.68 in1005.1 mb 0.00 in0.0 mm 0.00 in0.0 mm 0.00 in0.0 mm
01:40 AM 55.8°F13.2°C 54.3°F12.4°C 95% 4.7 mph E7.6 kmh E 5.7 mph9.2 kmh 29.68 in1005.1 mb 0.00 in0.0 mm 0.00 in0.0 mm 0.00 in0.0 mm
01:50 AM 55.8°F13.2°C 54.3°F12.4°C 95% 4.7 mph E7.6 kmh E 5.7 mph9.2 kmh 29.68 in1005.1 mb 0.00 in0.0 mm 0.00 in0.0 mm 0.00 in0.0 mm
02:00 AM 55.4°F13.0°C 54.0°F12.2°C 95% 4.7 mph E7.6 kmh E 5.7 mph9.2 kmh 29.68 in1005.1 mb 0.00 in0.0 mm 0.00 in0.0 mm 0.00 in0.0 mm
02:10 AM 55.2°F12.9°C 53.8°F12.1°C 95% 4.7 mph E7.6 kmh E 5.7 mph9.2 kmh 29.68 in1005.1 mb 0.00 in0.0 mm 0.00 in0.0 mm 0.00 in0.0 mm
02:20 AM 55.2°F12.9°C 53.8°F12.1°C 95% 4.7 mph E7.6 kmh E 5.7 mph9.2 kmh 29.68 in1005.1 mb 0.00 in0.0 mm 0.00 in0.0 mm 0.00 in0.0 mm
02:30 AM 54.9°F12.7°C 53.5°F11.9°C 95% 4.7 mph E7.6 kmh E 5.7 mph9.2 kmh 29.68 in1005.1 mb 0.00 in0.0 mm 0.00 in0.0 mm 0.00 in0.0 mm
02:40 AM 54.7°F12.6°C 53.3°F11.8°C 95% 4.7 mph E7.6 kmh E 5.7 mph9.2 kmh 29.68 in1005.1 mb 0.00 in0.0 mm 0.00 in0.0 mm 0.00 in0.0 mm
02:50 AM 54.5°F12.5°C 53.1°F11.7°C 95% 4.7 mph E7.6 kmh E 5.7 mph9.2 kmh 29.68 in1005.1 mb 0.00 in0.0 mm 0.00 in0.0 mm 0.00 in0.0 mm
03:00 AM 54.3°F12.4°C 52.9°F11.6°C 95% 4.7 mph E7.6 kmh E 5.7 mph9.2 kmh 29.68 in1005.1 mb 0.00 in0.0 mm 0.00 in0.0 mm 0.00 in0.0 mm
03:10 AM 54.1°F12.3°C 52.7°F11.5°C 95% 4.7 mph E7.6 kmh E 5.7 mph9.2 kmh 29.68 in1005.1 mb 0.00 in0.0 mm 0.00 in0.0 mm 0.00 in0.0 mm
03:20 AM 54.1°F12.3°C 52.7°F11.5°C 95% 4.7 mph E7.6 kmh E 5.7 mph9.2 kmh 29.68 in1005.1 mb 0.00 in0.0 mm 0.00 in0.0 mm 0.00 in0.0 mm
03:30 AM 54.0°F12.2°C 52.6°F11.4°C 95% 4.7 mph E7.6 kmh E 5.7 mph9.2 kmh 29.65 in1004.1 mb 0.00 in0.0 mm 0.00 in0.0 mm 0.00 in0.0 mm
03:40 AM 54.0°F12.2°C 52.6°F11.4°C 95% 4.7 mph E7.6 kmh E 5.7 mph9.2 kmh 29.65 in1004.1 mb 0.00 in0.0 mm 0.00 in0.0 mm 0.00 in0.0 mm
03:50 AM 54.0°F12.2°C 52.6°F11.4°C 95% 4.7 mph E7.6 kmh E 5.7 mph9.2 kmh 29.65 in1004.1 mb 0.00 in0.0 mm 0.00 in0.0 mm 0.00 in0.0 mm
04:00 AM 54.0°F12.2°C 52.6°F11.4°C 95% 4.7 mph E7.6 kmh E 5.7 mph9.2 kmh 29.65 in1004.1 mb 0.00 in0.0 mm 0.00 in0.0 mm 0.00 in0.0 mm
04:10 AM 54.0°F12.2°C 52.6°F11.4°C 95% 4.7 mph E7.6 kmh E 5.7 mph9.2 kmh 29.65 in1004.1 mb 0.00 in0.0 mm 0.00 in0.0 mm 0.00 in0.0 mm
04:20 AM 54.0°F12.2°C 52.6°F11.4°C 95% 4.7 mph E7.6 kmh E 5.7 mph9.2 kmh 29.65 in1004.1 mb 0.00 in0.0 mm 0.00 in0.0 mm 0.00 in0.0 mm
04:30 AM 53.8°F12.1°C 52.4°F11.3°C 95% 4.7 mph E7.6 kmh E 5.7 mph9.2 kmh 29.65 in1004.1 mb 0.00 in0.0 mm 0.00 in0.0 mm 0.00 in0.0 mm
04:40 AM 53.8°F12.1°C 52.4°F11.3°C 95% 4.7 mph E7.6 kmh E 5.7 mph9.2 kmh 29.62 in1003.0 mb 0.00 in0.0 mm 0.00 in0.0 mm 0.00 in0.0 mm
04:50 AM 53.8°F12.1°C 52.4°F11.3°C 95% 4.7 mph E7.6 kmh E 5.7 mph9.2 kmh 29.62 in1003.0 mb 0.00 in0.0 mm 0.00 in0.0 mm 0.00 in0.0 mm
05:00 AM 53.8°F12.1°C 52.4°F11.3°C 95% 4.7 mph E7.6 kmh E 5.7 mph9.2 kmh 29.65 in1004.1 mb 0.00 in0.0 mm 0.00 in0.0 mm 0.00 in0.0 mm
05:10 AM 53.8°F12.1°C 52.4°F11.3°C 95% 4.7 mph E7.6 kmh E 5.7 mph9.2 kmh 29.65 in1004.1 mb 0.00 in0.0 mm 0.00 in0.0 mm 0.00 in0.0 mm
05:20 AM 53.8°F12.1°C 52.4°F11.3°C 95% 4.7 mph E7.6 kmh E 5.7 mph9.2 kmh 29.65 in1004.1 mb 0.00 in0.0 mm 0.00 in0.0 mm 0.00 in0.0 mm
05:30 AM 53.8°F12.1°C 52.4°F11.3°C 95% 4.7 mph E7.6 kmh E 5.7 mph9.2 kmh 29.65 in1004.1 mb 0.00 in0.0 mm 0.00 in0.0 mm 0.00 in0.0 mm
05:40 AM 54.0°F12.2°C 52.6°F11.4°C 95% 4.7 mph E7.6 kmh E 5.7 mph9.2 kmh 29.65 in1004.1 mb 0.00 in0.0 mm 0.00 in0.0 mm 0.00 in0.0 mm
05:50 AM 54.0°F12.2°C 52.6°F11.4°C 95% 4.7 mph E7.6 kmh E 5.7 mph9.2 kmh 29.65 in1004.1 mb 0.00 in0.0 mm 0.00 in0.0 mm 0.00 in0.0 mm
06:00 AM 54.0°F12.2°C 52.6°F11.4°C 95% 4.7 mph E7.6 kmh E 5.7 mph9.2 kmh 29.68 in1005.1 mb 0.00 in0.0 mm 0.00 in0.0 mm 0.00 in0.0 mm
06:10 AM 54.0°F12.2°C 52.6°F11.4°C 95% 4.7 mph E7.6 kmh E 5.7 mph9.2 kmh 29.65 in1004.1 mb 0.00 in0.0 mm 0.00 in0.0 mm 0.00 in0.0 mm
06:20 AM 54.0°F12.2°C 52.6°F11.4°C 95% 4.7 mph E7.6 kmh E 5.7 mph9.2 kmh 29.65 in1004.1 mb 0.00 in0.0 mm 0.00 in0.0 mm 0.00 in0.0 mm
06:30 AM 54.0°F12.2°C 52.6°F11.4°C 95% 4.7 mph E7.6 kmh E 5.7 mph9.2 kmh 29.65 in1004.1 mb 0.00 in0.0 mm 0.00 in0.0 mm 0.00 in0.0 mm
06:40 AM 54.1°F12.3°C 52.7°F11.5°C 95% 4.7 mph E7.6 kmh E 5.7 mph9.2 kmh 29.65 in1004.1 mb 0.00 in0.0 mm 0.00 in0.0 mm 0.00 in0.0 mm
06:50 AM 54.3°F12.4°C 52.9°F11.6°C 95% 4.7 mph E7.6 kmh E 5.7 mph9.2 kmh 29.65 in1004.1 mb 0.00 in0.0 mm 0.00 in0.0 mm 0.00 in0.0 mm
07:00 AM 54.5°F12.5°C 53.1°F11.7°C 95% 4.7 mph E7.6 kmh E 5.7 mph9.2 kmh 29.65 in1004.1 mb 0.00 in0.0 mm 0.00 in0.0 mm 0.00 in0.0 mm
07:10 AM 54.5°F12.5°C 53.1°F11.7°C 95% 4.7 mph E7.6 kmh E 5.7 mph9.2 kmh 29.65 in1004.1 mb 0.00 in0.0 mm 0.00 in0.0 mm 0.00 in0.0 mm
07:20 AM 54.5°F12.5°C 53.1°F11.7°C 95% 4.7 mph E7.6 kmh E 5.7 mph9.2 kmh 29.65 in1004.1 mb 0.00 in0.0 mm 0.00 in0.0 mm 0.00 in0.0 mm
07:30 AM 54.7°F12.6°C 53.3°F11.8°C 95% 4.7 mph E7.6 kmh E 5.7 mph9.2 kmh 29.65 in1004.1 mb 0.00 in0.0 mm 0.00 in0.0 mm 0.00 in0.0 mm
07:40 AM 55.0°F12.8°C 53.9°F12.2°C 96% 4.7 mph E7.6 kmh E 5.7 mph9.2 kmh 29.65 in1004.1 mb 0.05 in1.3 mm 0.30 in7.6 mm 0.05 in1.3 mm
07:50 AM 55.2°F12.9°C 53.8°F12.1°C 95% 4.7 mph E7.6 kmh E 5.7 mph9.2 kmh 29.65 in1004.1 mb 0.05 in1.3 mm 0.00 in0.0 mm 0.05 in1.3 mm
08:00 AM 55.4°F13.0°C 54.3°F12.4°C 96% 4.7 mph E7.6 kmh E 5.7 mph9.2 kmh 29.65 in1004.1 mb 0.05 in1.3 mm 0.00 in0.0 mm 0.05 in1.3 mm
08:10 AM 55.6°F13.1°C 54.5°F12.5°C 96% 4.7 mph E7.6 kmh E 5.7 mph9.2 kmh 29.65 in1004.1 mb 0.05 in1.3 mm 0.00 in0.0 mm 0.05 in1.3 mm
08:20 AM 55.9°F13.3°C 54.8°F12.7°C 96% 4.7 mph E7.6 kmh E 5.7 mph9.2 kmh 29.65 in1004.1 mb 0.05 in1.3 mm 0.00 in0.0 mm 0.05 in1.3 mm
08:30 AM 56.1°F13.4°C 55.0°F12.8°C 96% 4.7 mph E7.6 kmh E 5.7 mph9.2 kmh 29.65 in1004.1 mb 0.05 in1.3 mm 0.00 in0.0 mm 0.05 in1.3 mm
08:40 AM 56.3°F13.5°C 55.2°F12.9°C 96% 4.7 mph E7.6 kmh E 5.7 mph9.2 kmh 29.65 in1004.1 mb 0.00 in0.0 mm 0.00 in0.0 mm 0.05 in1.3 mm
08:50 AM 56.7°F13.7°C 55.5°F13.1°C 96% 4.7 mph E7.6 kmh E 5.7 mph9.2 kmh 29.65 in1004.1 mb 0.00 in0.0 mm 0.00 in0.0 mm 0.05 in1.3 mm
09:00 AM 56.8°F13.8°C 55.7°F13.2°C 96% 4.7 mph E7.6 kmh E 5.7 mph9.2 kmh 29.68 in1005.1 mb 0.00 in0.0 mm 0.00 in0.0 mm 0.05 in1.3 mm
09:10 AM 57.0°F13.9°C 55.9°F13.3°C 96% 4.7 mph E7.6 kmh E 5.7 mph9.2 kmh 29.62 in1003.0 mb 0.00 in0.0 mm 0.00 in0.0 mm 0.05 in1.3 mm
09:20 AM 57.2°F14.0°C 56.1°F13.4°C 96% 4.7 mph E7.6 kmh E 5.7 mph9.2 kmh 29.62 in1003.0 mb 0.00 in0.0 mm 0.00 in0.0 mm 0.05 in1.3 mm
09:30 AM 57.6°F14.2°C 56.4°F13.6°C 96% 4.7 mph E7.6 kmh E 5.7 mph9.2 kmh 29.62 in1003.0 mb 0.00 in0.0 mm 0.00 in0.0 mm 0.05 in1.3 mm
09:40 AM 57.7°F14.3°C 56.6°F13.7°C 96% 4.7 mph E7.6 kmh E 5.7 mph9.2 kmh 29.65 in1004.1 mb 0.00 in0.0 mm 0.00 in0.0 mm 0.05 in1.3 mm
09:50 AM 58.3°F14.6°C 57.1°F13.9°C 96% 4.7 mph E7.6 kmh E 5.7 mph9.2 kmh 29.65 in1004.1 mb 0.00 in0.0 mm 0.00 in0.0 mm 0.05 in1.3 mm
10:00 AM 58.5°F14.7°C 57.3°F14.1°C 96% 4.7 mph E7.6 kmh E 5.7 mph9.2 kmh 29.62 in1003.0 mb 0.00 in0.0 mm 0.00 in0.0 mm 0.05 in1.3 mm
10:10 AM 58.6°F14.8°C 57.5°F14.2°C 96% 4.7 mph E7.6 kmh E 5.7 mph9.2 kmh 29.62 in1003.0 mb 0.00 in0.0 mm 0.00 in0.0 mm 0.05 in1.3 mm
10:20 AM 58.6°F14.8°C 57.5°F14.2°C 96% 4.7 mph E7.6 kmh E 5.7 mph9.2 kmh 29.62 in1003.0 mb 0.00 in0.0 mm 0.00 in0.0 mm 0.05 in1.3 mm
10:30 AM 58.8°F14.9°C 57.7°F14.3°C 96% 4.7 mph E7.6 kmh E 5.7 mph9.2 kmh 29.65 in1004.1 mb 0.00 in0.0 mm 0.00 in0.0 mm 0.05 in1.3 mm
10:40 AM 58.6°F14.8°C 57.2°F14.0°C 95% 4.7 mph E7.6 kmh E 5.7 mph9.2 kmh 29.65 in1004.1 mb 0.00 in0.0 mm 0.00 in0.0 mm 0.05 in1.3 mm
10:50 AM 58.8°F14.9°C 57.4°F14.1°C 95% 4.7 mph E7.6 kmh E 5.7 mph9.2 kmh 29.65 in1004.1 mb 0.00 in0.0 mm 0.00 in0.0 mm 0.05 in1.3 mm
11:00 AM 59.2°F15.1°C 57.7°F14.3°C 95% 4.7 mph E7.6 kmh E 5.7 mph9.2 kmh 29.65 in1004.1 mb 0.00 in0.0 mm 0.00 in0.0 mm 0.05 in1.3 mm
11:10 AM 59.4°F15.2°C 57.6°F14.2°C 94% 4.7 mph E7.6 kmh E 5.7 mph9.2 kmh 29.65 in1004.1 mb 0.00 in0.0 mm 0.00 in0.0 mm 0.05 in1.3 mm
11:20 AM 59.4°F15.2°C 57.3°F14.1°C 93% 4.7 mph E7.6 kmh E 5.7 mph9.2 kmh 29.65 in1004.1 mb 0.00 in0.0 mm 0.00 in0.0 mm 0.05 in1.3 mm
11:30 AM 59.4°F15.2°C 57.0°F13.9°C 92% 4.7 mph E7.6 kmh E 5.7 mph9.2 kmh 29.65 in1004.1 mb 0.00 in0.0 mm 0.00 in0.0 mm 0.05 in1.3 mm
11:40 AM 59.5°F15.3°C 56.9°F13.8°C 91% 4.7 mph E7.6 kmh E 5.7 mph9.2 kmh 29.65 in1004.1 mb 0.00 in0.0 mm 0.00 in0.0 mm 0.05 in1.3 mm
11:50 AM 59.4°F15.2°C 56.4°F13.6°C 90% 8.4 mph S13.5 kmh S 10.4 mph16.7 kmh 29.65 in1004.1 mb 0.00 in0.0 mm 0.00 in0.0 mm 0.05 in1.3 mm
12:00 PM 59.5°F15.3°C 56.3°F13.5°C 89% 9.9 mph S15.9 kmh S 12.5 mph20.1 kmh 29.68 in1005.1 mb 0.00 in0.0 mm 0.00 in0.0 mm 0.05 in1.3 mm
12:10 PM 59.5°F15.3°C 56.3°F13.5°C 89% 10.2 mph S16.4 kmh S 12.5 mph20.1 kmh 29.65 in1004.1 mb 0.00 in0.0 mm 0.00 in0.0 mm 0.05 in1.3 mm
12:20 PM 59.4°F15.2°C 55.8°F13.2°C 88% 10.2 mph S16.4 kmh S 12.5 mph20.1 kmh 29.65 in1004.1 mb 0.00 in0.0 mm 0.00 in0.0 mm 0.05 in1.3 mm
12:30 PM 59.5°F15.3°C 56.0°F13.3°C 88% 10.2 mph S16.4 kmh S 12.5 mph20.1 kmh 29.68 in1005.1 mb 0.00 in0.0 mm 0.00 in0.0 mm 0.05 in1.3 mm
12:40 PM 59.9°F15.5°C 56.6°F13.7°C 89% 10.2 mph S16.4 kmh S 12.5 mph20.1 kmh 29.68 in1005.1 mb 0.00 in0.0 mm 0.00 in0.0 mm 0.05 in1.3 mm
12:50 PM 59.7°F15.4°C 56.2°F13.4°C 88% 7.1 mph S11.4 kmh S 17.2 mph27.7 kmh 29.68 in1005.1 mb 0.00 in0.0 mm 0.00 in0.0 mm 0.05 in1.3 mm
01:00 PM 60.1°F15.6°C 56.5°F13.6°C 88% 5.5 mph S8.9 kmh S 6.8 mph10.9 kmh 29.65 in1004.1 mb 0.00 in0.0 mm 0.00 in0.0 mm 0.05 in1.3 mm
01:10 PM 59.9°F15.5°C 56.0°F13.3°C 87% 5.5 mph S8.9 kmh S 6.8 mph10.9 kmh 29.65 in1004.1 mb 0.00 in0.0 mm 0.00 in0.0 mm 0.05 in1.3 mm
01:20 PM 59.7°F15.4°C 55.5°F13.1°C 86% 5.5 mph S8.9 kmh S 6.8 mph10.9 kmh 29.65 in1004.1 mb 0.00 in0.0 mm 0.00 in0.0 mm 0.05 in1.3 mm
01:30 PM 59.9°F15.5°C 56.0°F13.3°C 87% 5.5 mph S8.9 kmh S 6.8 mph10.9 kmh 29.68 in1005.1 mb 0.00 in0.0 mm 0.00 in0.0 mm 0.05 in1.3 mm
01:40 PM 60.1°F15.6°C 56.2°F13.4°C 87% 5.3 mph S8.5 kmh S 6.8 mph10.9 kmh 29.65 in1004.1 mb 0.00 in0.0 mm 0.00 in0.0 mm 0.05 in1.3 mm
01:50 PM 60.1°F15.6°C 55.9°F13.3°C 86% 4.3 mph S6.9 kmh S 6.8 mph10.9 kmh 29.65 in1004.1 mb 0.00 in0.0 mm 0.00 in0.0 mm 0.05 in1.3 mm
02:00 PM 60.3°F15.7°C 55.7°F13.2°C 85% 4.1 mph S6.6 kmh S 5.0 mph8.0 kmh 29.65 in1004.1 mb 0.00 in0.0 mm 0.00 in0.0 mm 0.05 in1.3 mm
02:10 PM 59.7°F15.4°C 54.9°F12.7°C 84% 4.1 mph S6.6 kmh S 5.0 mph8.0 kmh 29.65 in1004.1 mb 0.00 in0.0 mm 0.00 in0.0 mm 0.05 in1.3 mm
02:20 PM 59.5°F15.3°C 54.7°F12.6°C 84% 4.1 mph S6.6 kmh S 5.0 mph8.0 kmh 29.65 in1004.1 mb 0.00 in0.0 mm 0.00 in0.0 mm 0.05 in1.3 mm
02:30 PM 59.5°F15.3°C 54.7°F12.6°C 84% 4.1 mph S6.6 kmh S 5.0 mph8.0 kmh 29.65 in1004.1 mb 0.00 in0.0 mm 0.00 in0.0 mm 0.05 in1.3 mm
02:40 PM 59.9°F15.5°C 55.4°F13.0°C 85% 3.6 mph S5.8 kmh S 10.4 mph16.7 kmh 29.65 in1004.1 mb 0.00 in0.0 mm 0.00 in0.0 mm 0.05 in1.3 mm
02:50 PM 60.4°F15.8°C 55.9°F13.3°C 85% 6.4 mph SW10.3 kmh SW 13.6 mph21.9 kmh 29.65 in1004.1 mb 0.00 in0.0 mm 0.00 in0.0 mm 0.05 in1.3 mm
03:00 PM 60.6°F15.9°C 55.8°F13.2°C 84% 10.3 mph SW16.6 kmh SW 17.2 mph27.7 kmh 29.62 in1003.0 mb 0.00 in0.0 mm 0.00 in0.0 mm 0.05 in1.3 mm
03:10 PM 59.7°F15.4°C 53.9°F12.2°C 81% 13.6 mph W21.9 kmh W 17.2 mph27.7 kmh 29.65 in1004.1 mb 0.00 in0.0 mm 0.00 in0.0 mm 0.05 in1.3 mm
03:20 PM 59.2°F15.1°C 53.0°F11.7°C 80% 14.0 mph W22.5 kmh W 17.2 mph27.7 kmh 29.65 in1004.1 mb 0.00 in0.0 mm 0.00 in0.0 mm 0.05 in1.3 mm
03:30 PM 58.8°F14.9°C 52.7°F11.5°C 80% 14.0 mph W22.5 kmh W 17.2 mph27.7 kmh 29.65 in1004.1 mb 0.00 in0.0 mm 0.00 in0.0 mm 0.05 in1.3 mm
03:40 PM 58.1°F14.5°C 52.0°F11.1°C 80% 14.0 mph W22.5 kmh W 17.2 mph27.7 kmh 29.68 in1005.1 mb 0.00 in0.0 mm 0.00 in0.0 mm 0.05 in1.3 mm
03:50 PM 57.6°F14.2°C 51.4°F10.8°C 80% 14.0 mph W22.5 kmh W 17.2 mph27.7 kmh 29.68 in1005.1 mb 0.00 in0.0 mm 0.00 in0.0 mm 0.05 in1.3 mm
04:00 PM 57.4°F14.1°C 51.3°F10.7°C 80% 14.0 mph W22.5 kmh W 17.2 mph27.7 kmh 29.65 in1004.1 mb 0.00 in0.0 mm 0.00 in0.0 mm 0.05 in1.3 mm
04:10 PM 57.4°F14.1°C 51.9°F11.1°C 82% 14.0 mph W22.5 kmh W 17.2 mph27.7 kmh 29.65 in1004.1 mb 0.00 in0.0 mm 0.00 in0.0 mm 0.05 in1.3 mm
04:20 PM 57.9°F14.4°C 52.1°F11.2°C 81% 14.0 mph W22.5 kmh W 17.2 mph27.7 kmh 29.65 in1004.1 mb 0.00 in0.0 mm 0.00 in0.0 mm 0.05 in1.3 mm
04:30 PM 58.1°F14.5°C 52.0°F11.1°C 80% 14.0 mph W22.5 kmh W 17.2 mph27.7 kmh 29.65 in1004.1 mb 0.00 in0.0 mm 0.00 in0.0 mm 0.05 in1.3 mm
04:40 PM 57.6°F14.2°C 50.8°F10.4°C 78% 14.0 mph W22.5 kmh W 17.2 mph27.7 kmh 29.65 in1004.1 mb 0.00 in0.0 mm 0.00 in0.0 mm 0.05 in1.3 mm
04:50 PM 57.0°F13.9°C 49.9°F9.9°C 77% 14.0 mph W22.5 kmh W 17.2 mph27.7 kmh 29.65 in1004.1 mb 0.00 in0.0 mm 0.00 in0.0 mm 0.05 in1.3 mm
05:00 PM 56.7°F13.7°C 49.9°F9.9°C 78% 14.0 mph W22.5 kmh W 17.2 mph27.7 kmh 29.65 in1004.1 mb 0.00 in0.0 mm 0.00 in0.0 mm 0.05 in1.3 mm
05:10 PM 56.3°F13.5°C 49.9°F9.9°C 79% 14.0 mph W22.5 kmh W 17.2 mph27.7 kmh 29.65 in1004.1 mb 0.00 in0.0 mm 0.00 in0.0 mm 0.05 in1.3 mm
05:20 PM 55.9°F13.3°C 49.9°F9.9°C 80% 14.0 mph W22.5 kmh W 17.2 mph27.7 kmh 29.65 in1004.1 mb 0.00 in0.0 mm 0.00 in0.0 mm 0.05 in1.3 mm
05:30 PM 55.8°F13.2°C 50.0°F10.0°C 81% 14.0 mph W22.5 kmh W 17.2 mph27.7 kmh 29.65 in1004.1 mb 0.00 in0.0 mm 0.00 in0.0 mm 0.05 in1.3 mm
05:40 PM 55.8°F13.2°C 50.0°F10.0°C 81% 14.0 mph W22.5 kmh W 17.2 mph27.7 kmh 29.62 in1003.0 mb 0.00 in0.0 mm 0.00 in0.0 mm 0.05 in1.3 mm
05:50 PM 55.6°F13.1°C 50.2°F10.1°C 82% 14.0 mph W22.5 kmh W 17.2 mph27.7 kmh 29.62 in1003.0 mb 0.00 in0.0 mm 0.00 in0.0 mm 0.05 in1.3 mm
06:00 PM 55.4°F13.0°C 50.0°F10.0°C 82% 14.0 mph W22.5 kmh W 17.2 mph27.7 kmh 29.62 in1003.0 mb 0.00 in0.0 mm 0.00 in0.0 mm 0.05 in1.3 mm
06:10 PM 55.4°F13.0°C 50.3°F10.2°C 83% 14.0 mph W22.5 kmh W 17.2 mph27.7 kmh 29.62 in1003.0 mb 0.00 in0.0 mm 0.00 in0.0 mm 0.05 in1.3 mm
06:20 PM 55.2°F12.9°C 50.1°F10.1°C 83% 14.0 mph W22.5 kmh W 17.2 mph27.7 kmh 29.62 in1003.0 mb 0.00 in0.0 mm 0.00 in0.0 mm 0.05 in1.3 mm
06:30 PM 55.2°F12.9°C 50.5°F10.3°C 84% 14.0 mph W22.5 kmh W 17.2 mph27.7 kmh 29.62 in1003.0 mb 0.00 in0.0 mm 0.00 in0.0 mm 0.05 in1.3 mm
06:40 PM 55.4°F13.0°C 50.6°F10.3°C 84% 14.0 mph W22.5 kmh W 17.2 mph27.7 kmh 29.62 in1003.0 mb 0.00 in0.0 mm 0.00 in0.0 mm 0.05 in1.3 mm
06:50 PM 55.4°F13.0°C 51.0°F10.6°C 85% 14.0 mph W22.5 kmh W 17.2 mph27.7 kmh 29.62 in1003.0 mb 0.00 in0.0 mm 0.00 in0.0 mm 0.05 in1.3 mm
07:00 PM 55.4°F13.0°C 51.0°F10.6°C 85% 14.0 mph W22.5 kmh W 17.2 mph27.7 kmh 29.62 in1003.0 mb 0.00 in0.0 mm 0.00 in0.0 mm 0.05 in1.3 mm
07:10 PM 55.6°F13.1°C 51.1°F10.6°C 85% 14.0 mph W22.5 kmh W 17.2 mph27.7 kmh 29.59 in1002.0 mb 0.00 in0.0 mm 0.00 in0.0 mm 0.05 in1.3 mm
07:20 PM 55.6°F13.1°C 51.1°F10.6°C 85% 14.0 mph W22.5 kmh W 17.2 mph27.7 kmh 29.59 in1002.0 mb 0.00 in0.0 mm 0.00 in0.0 mm 0.05 in1.3 mm
07:30 PM 55.6°F13.1°C 51.5°F10.8°C 86% 14.0 mph W22.5 kmh W 17.2 mph27.7 kmh 29.59 in1002.0 mb 0.00 in0.0 mm 0.00 in0.0 mm 0.05 in1.3 mm
07:40 PM 55.6°F13.1°C 51.5°F10.8°C 86% 14.0 mph W22.5 kmh W 17.2 mph27.7 kmh 29.59 in1002.0 mb 0.00 in0.0 mm 0.00 in0.0 mm 0.05 in1.3 mm
07:50 PM 55.4°F13.0°C 51.6°F10.9°C 87% 14.0 mph W22.5 kmh W 17.2 mph27.7 kmh 29.59 in1002.0 mb 0.00 in0.0 mm 0.00 in0.0 mm 0.05 in1.3 mm
08:00 PM 55.4°F13.0°C 51.6°F10.9°C 87% 14.0 mph W22.5 kmh W 17.2 mph27.7 kmh 29.56 in1001.0 mb 0.00 in0.0 mm 0.00 in0.0 mm 0.05 in1.3 mm
08:10 PM 55.2°F12.9°C 51.4°F10.8°C 87% 14.0 mph W22.5 kmh W 17.2 mph27.7 kmh 29.56 in1001.0 mb 0.00 in0.0 mm 0.00 in0.0 mm 0.05 in1.3 mm
08:20 PM 55.0°F12.8°C 51.5°F10.8°C 88% 14.0 mph W22.5 kmh W 17.2 mph27.7 kmh 29.56 in1001.0 mb 0.00 in0.0 mm 0.00 in0.0 mm 0.05 in1.3 mm
08:30 PM 55.0°F12.8°C 51.5°F10.8°C 88% 14.0 mph W22.5 kmh W 17.2 mph27.7 kmh 29.59 in1002.0 mb 0.00 in0.0 mm 0.00 in0.0 mm 0.05 in1.3 mm
08:40 PM 54.9°F12.7°C 51.4°F10.8°C 88% 14.0 mph W22.5 kmh W 17.2 mph27.7 kmh 29.59 in1002.0 mb 0.00 in0.0 mm 0.00 in0.0 mm 0.05 in1.3 mm
08:50 PM 54.9°F12.7°C 51.7°F10.9°C 89% 14.0 mph W22.5 kmh W 17.2 mph27.7 kmh 29.59 in1002.0 mb 0.00 in0.0 mm 0.00 in0.0 mm 0.05 in1.3 mm
09:00 PM 54.9°F12.7°C 51.7°F10.9°C 89% 14.0 mph W22.5 kmh W 17.2 mph27.7 kmh 29.56 in1001.0 mb 0.00 in0.0 mm 0.00 in0.0 mm 0.05 in1.3 mm
09:10 PM 54.9°F12.7°C 51.7°F10.9°C 89% 3.4 mph S5.5 kmh S 6.1 mph9.8 kmh 29.56 in1001.0 mb 0.05 in1.3 mm 0.30 in7.6 mm 0.09 in2.3 mm
09:20 PM 54.9°F12.7°C 51.7°F10.9°C 89% 3.2 mph S5.1 kmh S 3.9 mph6.3 kmh 29.56 in1001.0 mb 0.05 in1.3 mm 0.00 in0.0 mm 0.09 in2.3 mm
09:30 PM 55.0°F12.8°C 52.2°F11.2°C 90% 3.2 mph S5.1 kmh S 3.9 mph6.3 kmh 29.56 in1001.0 mb 0.10 in2.5 mm 0.30 in7.6 mm 0.15 in3.8 mm
09:40 PM 55.0°F12.8°C 52.2°F11.2°C 90% 3.2 mph S5.1 kmh S 3.9 mph6.3 kmh 29.56 in1001.0 mb 0.10 in2.5 mm 0.00 in0.0 mm 0.15 in3.8 mm
09:50 PM 55.0°F12.8°C 52.5°F11.4°C 91% 3.2 mph S5.1 kmh S 3.9 mph6.3 kmh 29.56 in1001.0 mb 0.10 in2.5 mm 0.00 in0.0 mm 0.15 in3.8 mm
10:00 PM 55.0°F12.8°C 52.5°F11.4°C 91% 3.2 mph S5.1 kmh S 3.9 mph6.3 kmh 29.53 in1000.0 mb 0.10 in2.5 mm 0.00 in0.0 mm 0.15 in3.8 mm
10:10 PM 55.0°F12.8°C 52.5°F11.4°C 91% 3.2 mph S5.1 kmh S 3.9 mph6.3 kmh 29.53 in1000.0 mb 0.06 in1.5 mm 0.00 in0.0 mm 0.15 in3.8 mm
10:20 PM 55.0°F12.8°C 52.5°F11.4°C 91% 3.2 mph S5.1 kmh S 3.9 mph6.3 kmh 29.53 in1000.0 mb 0.06 in1.5 mm 0.00 in0.0 mm 0.15 in3.8 mm
10:30 PM 55.0°F12.8°C 52.8°F11.6°C 92% 3.2 mph S5.1 kmh S 3.9 mph6.3 kmh 29.50 in999.0 mb 0.00 in0.0 mm 0.00 in0.0 mm 0.15 in3.8 mm
10:40 PM 55.0°F12.8°C 52.8°F11.6°C 92% 3.2 mph S5.1 kmh S 3.9 mph6.3 kmh 29.50 in999.0 mb 0.00 in0.0 mm 0.00 in0.0 mm 0.15 in3.8 mm
10:50 PM 55.0°F12.8°C 52.8°F11.6°C 92% 3.2 mph S5.1 kmh S 3.9 mph6.3 kmh 29.50 in999.0 mb 0.00 in0.0 mm 0.00 in0.0 mm 0.15 in3.8 mm
11:00 PM 55.2°F12.9°C 52.9°F11.6°C 92% 3.2 mph S5.1 kmh S 3.9 mph6.3 kmh 29.56 in1001.0 mb 0.00 in0.0 mm 0.00 in0.0 mm 0.15 in3.8 mm
11:10 PM 55.2°F12.9°C 52.9°F11.6°C 92% 3.2 mph S5.1 kmh S 3.9 mph6.3 kmh 29.53 in1000.0 mb 0.00 in0.0 mm 0.00 in0.0 mm 0.15 in3.8 mm
11:20 PM 55.4°F13.0°C 53.4°F11.9°C 93% 4.7 mph S7.6 kmh S 5.7 mph9.2 kmh 29.53 in1000.0 mb 0.05 in1.3 mm 0.30 in7.6 mm 0.05 in1.3 mm
11:30 PM 55.6°F13.1°C 53.6°F12.0°C 93% 6.3 mph S10.1 kmh S 8.6 mph13.8 kmh 29.53 in1000.0 mb 0.05 in1.3 mm 0.00 in0.0 mm 0.05 in1.3 mm
11:40 PM 55.6°F13.1°C 53.9°F12.2°C 94% 4.7 mph S7.6 kmh S 5.7 mph9.2 kmh 29.53 in1000.0 mb 0.05 in1.3 mm 0.00 in0.0 mm 0.05 in1.3 mm
11:50 PM 55.6°F13.1°C 53.9°F12.2°C 94% 4.7 mph S7.6 kmh S 5.7 mph9.2 kmh 29.53 in1000.0 mb 0.05 in1.3 mm 0.00 in0.0 mm 0.05 in1.3 mm